Daggett, CA (92327)

2:38 PM PDT on October 20, 2014 (GMT -0700)
Barstow-Daggett | Change Station
CLOSE
Current Station
Airport
Location: Daggett-Barstow,
Elevation: 1926 ft
Nearby Weather Stations

Elev 1926 ft 34.85 °N, 116.79 °W | Updated 48 minutes ago

Clear
Clear
88 °F
Feels Like 88 °F
N
7
Wind Variable Wind from ENE

Today
High -- | Low -- °F
--% Chance of Precip.
Yesterday
High -- | Low -- °F
Precip. -- in
6:57 AM 6:06 PM
Waning Crescent, 9% visible
Pressure 29.79 in
Visibility 10.0 miles
Clouds Clear
Dew Point 39 °F
Humidity 18%
Rainfall 0.00 in
Snow Depth Not available.
UV 5 out of 12
Pollen 3.50 out of 12
Ozone Good
Flu Activity Sporadic
METAR KDAG 202050Z AUTO 06006KT 10SM CLR 31/04 A2986 RMK AO2 SLP086 T03110039 58025

More Conditions Fewer Conditions

Pressure 29.79 in
Visibility 10.0 miles
Clouds Clear
Dew Point 39 °F
Humidity 18%
Rainfall 0.00 in
Snow Depth Not available.
UV 5 out of 12
Pollen 3.50 out of 12
Ozone Good
Flu Activity Sporadic
METAR KDAG 202050Z AUTO 06006KT 10SM CLR 31/04 A2986 RMK AO2 SLP086 T03110039 58025

More Conditions Fewer Conditions

10-Day Weather Forecast

Almanac

Astronomy

Oct. 20, 2014 Rise Set
Actual Time 6:57 AM PDT 6:06 PM PDT
Civil Twilight 6:31 AM PDT 6:31 PM PDT
Nautical Twilight 6:02 AM PDT 7:01 PM PDT
Astronomical Twilight 5:33 AM PDT 7:30 PM PDT
Moon 3:57 AM PDT 4:25 PM PDT
Length of Visible Light 12h 00m
Length of Day
11h 08m
Waning Crescent, 9% of the Moon is Illuminated
Today
Waning Crescent
Oct 23
New
Oct 30
First Quarter
Nov 6
Full
Nov 14
Last Quarter

Today's Extremes

State Highs State Lows

Community

WunderPhotos

Upload Photos

1,763,525 photos uploaded!

WunderBlogs® & News

Nearby

Air Quality

  Air Quality AQ Index Pollutant
Yesterday Good
OZONE
Yesterday Good
PM10
Current Good
OZONE
Tuesday Good
OZONE
Tuesday Good
PM10
Tuesday Good
CO
Tuesday Good
NO2

Snow Depth

Station Depth Elevation
Leavitt Meadows 0 in 7200 ft
Sonora Pass 0 in 8800 ft
Summit Meadow 0 in 9122 ft
Monitor Pass 0 in 8350 ft
Blue Lakes 0 in 8000 ft

Earthquake Activity

City Distance Mag. Time & Date
Lone Pine, California 127 miles 2.6 5:26 AM PDT
2014-10-19
Fort Irwin, California 21 miles 3.1 6:03 AM PDT
2014-10-17
Minimum magnitude displayed is 2.5.

Coastal Water Temperatures

Place Temperature
No Stations Reporting

Nearby Weather Stations